sensor_id;sensor_type;location;lat;lon;timestamp;P1;durP1;ratioP1;P2;durP2;ratioP2
52029;SDS011;38043;53.224;6.580;2023-02-28T00:00:20;14.63;;;3.40;;
52029;SDS011;38043;53.224;6.580;2023-02-28T00:02:46;18.23;;;3.45;;
52029;SDS011;38043;53.224;6.580;2023-02-28T00:05:13;11.88;;;3.40;;
52029;SDS011;38043;53.224;6.580;2023-02-28T00:07:40;12.93;;;3.20;;
52029;SDS011;38043;53.224;6.580;2023-02-28T00:10:08;10.88;;;3.00;;
52029;SDS011;38043;53.224;6.580;2023-02-28T00:12:35;12.40;;;3.10;;
52029;SDS011;38043;53.224;6.580;2023-02-28T00:15:04;7.55;;;3.13;;
52029;SDS011;38043;53.224;6.580;2023-02-28T00:17:31;9.35;;;3.10;;
52029;SDS011;38043;53.224;6.580;2023-02-28T00:19:57;9.57;;;3.10;;
52029;SDS011;38043;53.224;6.580;2023-02-28T00:22:35;10.50;;;3.15;;
52029;SDS011;38043;53.224;6.580;2023-02-28T00:25:01;12.43;;;3.42;;
52029;SDS011;38043;53.224;6.580;2023-02-28T00:27:27;9.45;;;2.80;;
52029;SDS011;38043;53.224;6.580;2023-02-28T00:29:53;15.02;;;2.97;;
52029;SDS011;38043;53.224;6.580;2023-02-28T00:32:19;13.10;;;3.78;;
52029;SDS011;38043;53.224;6.580;2023-02-28T00:34:45;12.52;;;3.97;;
52029;SDS011;38043;53.224;6.580;2023-02-28T00:37:11;10.80;;;3.10;;
52029;SDS011;38043;53.224;6.580;2023-02-28T00:39:39;13.95;;;3.22;;
52029;SDS011;38043;53.224;6.580;2023-02-28T00:42:06;12.18;;;2.78;;
52029;SDS011;38043;53.224;6.580;2023-02-28T00:44:32;16.45;;;3.40;;
52029;SDS011;38043;53.224;6.580;2023-02-28T00:46:58;10.32;;;2.80;;
52029;SDS011;38043;53.224;6.580;2023-02-28T00:49:24;10.45;;;3.08;;
52029;SDS011;38043;53.224;6.580;2023-02-28T00:51:51;6.93;;;3.00;;
52029;SDS011;38043;53.224;6.580;2023-02-28T00:54:17;11.68;;;3.33;;
52029;SDS011;38043;53.224;6.580;2023-02-28T00:56:43;11.73;;;3.33;;
52029;SDS011;38043;53.224;6.580;2023-02-28T00:59:11;11.15;;;3.00;;
52029;SDS011;38043;53.224;6.580;2023-02-28T01:01:37;14.95;;;3.03;;
52029;SDS011;38043;53.224;6.580;2023-02-28T01:04:02;11.90;;;2.92;;
52029;SDS011;38043;53.224;6.580;2023-02-28T01:06:28;11.95;;;3.05;;
52029;SDS011;38043;53.224;6.580;2023-02-28T01:08:54;10.50;;;3.33;;
52029;SDS011;38043;53.224;6.580;2023-02-28T01:11:19;9.18;;;2.95;;
52029;SDS011;38043;53.224;6.580;2023-02-28T01:13:45;11.73;;;3.25;;
52029;SDS011;38043;53.224;6.580;2023-02-28T01:16:12;11.40;;;3.33;;
52029;SDS011;38043;53.224;6.580;2023-02-28T01:18:38;11.70;;;3.15;;
52029;SDS011;38043;53.224;6.580;2023-02-28T01:21:09;14.43;;;3.42;;
52029;SDS011;38043;53.224;6.580;2023-02-28T01:23:37;8.77;;;2.80;;
52029;SDS011;38043;53.224;6.580;2023-02-28T01:26:04;11.48;;;3.42;;
52029;SDS011;38043;53.224;6.580;2023-02-28T01:28:44;8.05;;;2.78;;
52029;SDS011;38043;53.224;6.580;2023-02-28T01:31:10;12.77;;;3.20;;
52029;SDS011;38043;53.224;6.580;2023-02-28T01:33:36;12.85;;;3.10;;
52029;SDS011;38043;53.224;6.580;2023-02-28T01:36:06;12.70;;;3.22;;
52029;SDS011;38043;53.224;6.580;2023-02-28T01:38:34;10.95;;;2.90;;
52029;SDS011;38043;53.224;6.580;2023-02-28T01:41:00;10.60;;;3.28;;
52029;SDS011;38043;53.224;6.580;2023-02-28T01:43:28;13.55;;;3.00;;
52029;SDS011;38043;53.224;6.580;2023-02-28T01:45:56;12.43;;;3.40;;
52029;SDS011;38043;53.224;6.580;2023-02-28T01:48:24;14.00;;;3.10;;
52029;SDS011;38043;53.224;6.580;2023-02-28T01:50:59;16.27;;;3.25;;
52029;SDS011;38043;53.224;6.580;2023-02-28T01:53:32;8.68;;;2.97;;
52029;SDS011;38043;53.224;6.580;2023-02-28T01:56:04;11.98;;;3.17;;
52029;SDS011;38043;53.224;6.580;2023-02-28T01:58:31;9.63;;;3.15;;
52029;SDS011;38043;53.224;6.580;2023-02-28T02:00:57;13.45;;;3.00;;
52029;SDS011;38043;53.224;6.580;2023-02-28T02:03:23;13.00;;;3.17;;
52029;SDS011;38043;53.224;6.580;2023-02-28T02:05:49;10.52;;;3.13;;
52029;SDS011;38043;53.224;6.580;2023-02-28T02:08:19;8.88;;;3.03;;
52029;SDS011;38043;53.224;6.580;2023-02-28T02:10:48;10.20;;;2.95;;
52029;SDS011;38043;53.224;6.580;2023-02-28T02:38:15;10.68;;;3.03;;
52029;SDS011;38043;53.224;6.580;2023-02-28T02:40:49;12.02;;;2.70;;
52029;SDS011;38043;53.224;6.580;2023-02-28T02:44:10;9.35;;;2.53;;
52029;SDS011;38043;53.224;6.580;2023-02-28T02:46:17;9.95;;;3.13;;
52029;SDS011;38043;53.224;6.580;2023-02-28T02:48:50;12.98;;;3.03;;
52029;SDS011;38043;53.224;6.580;2023-02-28T02:51:21;10.73;;;2.72;;
52029;SDS011;38043;53.224;6.580;2023-02-28T02:56:17;10.55;;;2.70;;
52029;SDS011;38043;53.224;6.580;2023-02-28T02:58:46;14.13;;;3.08;;
52029;SDS011;38043;53.224;6.580;2023-02-28T03:01:20;9.05;;;2.90;;
52029;SDS011;38043;53.224;6.580;2023-02-28T03:04:00;8.02;;;2.55;;
52029;SDS011;38043;53.224;6.580;2023-02-28T03:06:32;6.82;;;2.65;;
52029;SDS011;38043;53.224;6.580;2023-02-28T03:08:57;12.05;;;3.38;;
52029;SDS011;38043;53.224;6.580;2023-02-28T03:11:25;8.38;;;3.50;;
52029;SDS011;38043;53.224;6.580;2023-02-28T03:16:49;16.58;;;6.15;;
52029;SDS011;38043;53.224;6.580;2023-02-28T03:21:59;15.55;;;8.00;;
52029;SDS011;38043;53.224;6.580;2023-02-28T03:30:24;22.55;;;7.00;;
52029;SDS011;38043;53.224;6.580;2023-02-28T03:33:03;14.85;;;7.93;;
52029;SDS011;38043;53.224;6.580;2023-02-28T03:35:59;16.88;;;7.82;;
52029;SDS011;38043;53.224;6.580;2023-02-28T03:38:40;18.08;;;7.82;;
52029;SDS011;38043;53.224;6.580;2023-02-28T03:41:22;16.88;;;9.40;;
52029;SDS011;38043;53.224;6.580;2023-02-28T03:43:56;15.50;;;8.95;;
52029;SDS011;38043;53.224;6.580;2023-02-28T03:46:28;20.27;;;9.30;;
52029;SDS011;38043;53.224;6.580;2023-02-28T03:49:02;14.07;;;9.15;;
52029;SDS011;38043;53.224;6.580;2023-02-28T03:51:34;18.10;;;9.20;;
52029;SDS011;38043;53.224;6.580;2023-02-28T03:54:05;19.23;;;10.30;;
52029;SDS011;38043;53.224;6.580;2023-02-28T03:56:37;14.25;;;9.70;;
52029;SDS011;38043;53.224;6.580;2023-02-28T03:59:16;16.05;;;9.13;;
52029;SDS011;38043;53.224;6.580;2023-02-28T04:01:50;17.33;;;9.95;;
52029;SDS011;38043;53.224;6.580;2023-02-28T04:04:16;16.00;;;9.40;;
52029;SDS011;38043;53.224;6.580;2023-02-28T04:06:43;17.40;;;9.32;;
52029;SDS011;38043;53.224;6.580;2023-02-28T04:09:10;16.02;;;9.27;;
52029;SDS011;38043;53.224;6.580;2023-02-28T04:11:39;16.42;;;9.73;;
52029;SDS011;38043;53.224;6.580;2023-02-28T04:14:08;18.38;;;9.20;;
52029;SDS011;38043;53.224;6.580;2023-02-28T04:16:35;16.13;;;9.80;;
52029;SDS011;38043;53.224;6.580;2023-02-28T04:19:03;14.27;;;8.88;;
52029;SDS011;38043;53.224;6.580;2023-02-28T04:21:35;17.13;;;9.57;;
52029;SDS011;38043;53.224;6.580;2023-02-28T04:24:06;14.43;;;9.15;;
52029;SDS011;38043;53.224;6.580;2023-02-28T04:26:34;15.93;;;8.77;;
52029;SDS011;38043;53.224;6.580;2023-02-28T04:29:05;13.77;;;8.65;;
52029;SDS011;38043;53.224;6.580;2023-02-28T04:31:31;13.48;;;8.50;;
52029;SDS011;38043;53.224;6.580;2023-02-28T04:33:57;15.73;;;8.80;;
52029;SDS011;38043;53.224;6.580;2023-02-28T04:36:23;17.83;;;8.43;;
52029;SDS011;38043;53.224;6.580;2023-02-28T04:38:48;12.32;;;7.85;;
52029;SDS011;38043;53.224;6.580;2023-02-28T04:41:15;12.23;;;7.38;;
52029;SDS011;38043;53.224;6.580;2023-02-28T04:43:41;15.32;;;8.10;;
52029;SDS011;38043;53.224;6.580;2023-02-28T04:46:07;11.30;;;7.05;;
52029;SDS011;38043;53.224;6.580;2023-02-28T04:48:34;9.07;;;6.30;;
52029;SDS011;38043;53.224;6.580;2023-02-28T04:51:02;9.65;;;6.75;;
52029;SDS011;38043;53.224;6.580;2023-02-28T04:53:29;11.52;;;6.60;;
52029;SDS011;38043;53.224;6.580;2023-02-28T04:55:55;13.20;;;6.40;;
52029;SDS011;38043;53.224;6.580;2023-02-28T04:58:21;11.68;;;6.57;;
52029;SDS011;38043;53.224;6.580;2023-02-28T05:00:51;10.20;;;6.65;;
52029;SDS011;38043;53.224;6.580;2023-02-28T05:03:17;11.07;;;6.65;;
52029;SDS011;38043;53.224;6.580;2023-02-28T05:05:45;10.02;;;6.85;;
52029;SDS011;38043;53.224;6.580;2023-02-28T05:08:11;10.35;;;6.65;;
52029;SDS011;38043;53.224;6.580;2023-02-28T05:10:37;12.75;;;6.88;;
52029;SDS011;38043;53.224;6.580;2023-02-28T05:13:02;12.07;;;7.15;;
52029;SDS011;38043;53.224;6.580;2023-02-28T05:15:28;10.65;;;6.28;;
52029;SDS011;38043;53.224;6.580;2023-02-28T05:17:53;12.25;;;7.15;;
52029;SDS011;38043;53.224;6.580;2023-02-28T05:20:19;11.43;;;6.38;;
52029;SDS011;38043;53.224;6.580;2023-02-28T05:22:46;11.48;;;6.75;;
52029;SDS011;38043;53.224;6.580;2023-02-28T05:25:13;10.60;;;7.15;;
52029;SDS011;38043;53.224;6.580;2023-02-28T05:27:42;11.50;;;6.80;;
52029;SDS011;38043;53.224;6.580;2023-02-28T05:30:09;12.98;;;7.25;;
52029;SDS011;38043;53.224;6.580;2023-02-28T05:32:39;13.00;;;7.53;;
52029;SDS011;38043;53.224;6.580;2023-02-28T05:35:08;16.50;;;8.27;;
52029;SDS011;38043;53.224;6.580;2023-02-28T05:37:37;12.68;;;7.78;;
52029;SDS011;38043;53.224;6.580;2023-02-28T05:40:04;16.27;;;8.32;;
52029;SDS011;38043;53.224;6.580;2023-02-28T05:42:36;15.82;;;8.73;;
52029;SDS011;38043;53.224;6.580;2023-02-28T05:45:03;16.92;;;8.40;;
52029;SDS011;38043;53.224;6.580;2023-02-28T05:47:29;15.57;;;8.65;;
52029;SDS011;38043;53.224;6.580;2023-02-28T05:49:55;13.73;;;8.35;;
52029;SDS011;38043;53.224;6.580;2023-02-28T05:52:21;16.67;;;8.18;;
52029;SDS011;38043;53.224;6.580;2023-02-28T05:54:47;16.65;;;9.00;;
52029;SDS011;38043;53.224;6.580;2023-02-28T05:57:13;14.45;;;8.43;;
52029;SDS011;38043;53.224;6.580;2023-02-28T05:59:40;15.80;;;9.05;;
52029;SDS011;38043;53.224;6.580;2023-02-28T06:02:06;19.10;;;9.07;;
52029;SDS011;38043;53.224;6.580;2023-02-28T06:04:36;16.30;;;8.77;;
52029;SDS011;38043;53.224;6.580;2023-02-28T06:07:02;16.42;;;9.00;;
52029;SDS011;38043;53.224;6.580;2023-02-28T06:09:28;14.80;;;9.75;;
52029;SDS011;38043;53.224;6.580;2023-02-28T06:11:54;20.23;;;10.65;;
52029;SDS011;38043;53.224;6.580;2023-02-28T06:14:22;16.92;;;10.52;;
52029;SDS011;38043;53.224;6.580;2023-02-28T06:16:48;17.38;;;9.98;;
52029;SDS011;38043;53.224;6.580;2023-02-28T06:19:13;19.40;;;10.40;;
52029;SDS011;38043;53.224;6.580;2023-02-28T06:21:40;22.63;;;11.50;;
52029;SDS011;38043;53.224;6.580;2023-02-28T06:24:06;18.40;;;11.13;;
52029;SDS011;38043;53.224;6.580;2023-02-28T06:26:32;16.92;;;10.55;;
52029;SDS011;38043;53.224;6.580;2023-02-28T06:28:58;19.38;;;11.15;;
52029;SDS011;38043;53.224;6.580;2023-02-28T06:31:25;17.75;;;11.15;;
52029;SDS011;38043;53.224;6.580;2023-02-28T06:33:51;22.85;;;11.45;;
52029;SDS011;38043;53.224;6.580;2023-02-28T06:36:17;18.70;;;11.13;;
52029;SDS011;38043;53.224;6.580;2023-02-28T06:38:43;16.60;;;10.27;;
52029;SDS011;38043;53.224;6.580;2023-02-28T06:41:09;16.08;;;10.57;;
52029;SDS011;38043;53.224;6.580;2023-02-28T06:43:36;23.23;;;11.15;;
52029;SDS011;38043;53.224;6.580;2023-02-28T06:46:04;20.25;;;11.38;;
52029;SDS011;38043;53.224;6.580;2023-02-28T06:48:31;18.30;;;10.57;;
52029;SDS011;38043;53.224;6.580;2023-02-28T06:51:01;16.20;;;10.07;;
52029;SDS011;38043;53.224;6.580;2023-02-28T06:53:28;20.27;;;11.48;;
52029;SDS011;38043;53.224;6.580;2023-02-28T06:55:53;15.77;;;10.02;;
52029;SDS011;38043;53.224;6.580;2023-02-28T06:58:19;18.73;;;10.40;;
52029;SDS011;38043;53.224;6.580;2023-02-28T07:00:45;20.25;;;10.73;;
52029;SDS011;38043;53.224;6.580;2023-02-28T07:03:15;18.92;;;11.23;;
52029;SDS011;38043;53.224;6.580;2023-02-28T07:05:40;20.02;;;10.90;;
52029;SDS011;38043;53.224;6.580;2023-02-28T07:08:07;17.40;;;10.90;;
52029;SDS011;38043;53.224;6.580;2023-02-28T07:10:33;19.25;;;12.25;;
52029;SDS011;38043;53.224;6.580;2023-02-28T07:12:59;25.42;;;12.55;;
52029;SDS011;38043;53.224;6.580;2023-02-28T07:15:25;24.10;;;12.27;;
52029;SDS011;38043;53.224;6.580;2023-02-28T07:17:51;23.95;;;13.20;;
52029;SDS011;38043;53.224;6.580;2023-02-28T07:20:16;21.50;;;11.48;;
52029;SDS011;38043;53.224;6.580;2023-02-28T07:22:42;22.35;;;12.95;;
52029;SDS011;38043;53.224;6.580;2023-02-28T07:25:08;22.23;;;12.50;;
52029;SDS011;38043;53.224;6.580;2023-02-28T07:27:34;20.00;;;12.57;;
52029;SDS011;38043;53.224;6.580;2023-02-28T07:30:00;24.13;;;13.05;;
52029;SDS011;38043;53.224;6.580;2023-02-28T07:34:54;24.27;;;12.55;;
52029;SDS011;38043;53.224;6.580;2023-02-28T07:37:20;22.52;;;12.68;;
52029;SDS011;38043;53.224;6.580;2023-02-28T07:39:46;18.65;;;11.95;;
52029;SDS011;38043;53.224;6.580;2023-02-28T07:42:11;26.17;;;13.57;;
52029;SDS011;38043;53.224;6.580;2023-02-28T07:44:38;21.55;;;13.55;;
52029;SDS011;38043;53.224;6.580;2023-02-28T07:47:09;23.15;;;13.07;;
52029;SDS011;38043;53.224;6.580;2023-02-28T07:49:37;22.88;;;11.98;;
52029;SDS011;38043;53.224;6.580;2023-02-28T07:54:29;20.08;;;12.00;;
52029;SDS011;38043;53.224;6.580;2023-02-28T07:56:55;23.88;;;11.93;;
52029;SDS011;38043;53.224;6.580;2023-02-28T07:59:21;19.83;;;12.10;;
52029;SDS011;38043;53.224;6.580;2023-02-28T08:01:47;19.15;;;11.70;;
52029;SDS011;38043;53.224;6.580;2023-02-28T08:04:15;21.30;;;12.27;;
52029;SDS011;38043;53.224;6.580;2023-02-28T08:06:44;21.77;;;12.75;;
52029;SDS011;38043;53.224;6.580;2023-02-28T08:09:09;24.17;;;12.27;;
52029;SDS011;38043;53.224;6.580;2023-02-28T08:11:35;22.40;;;13.00;;
52029;SDS011;38043;53.224;6.580;2023-02-28T08:14:01;17.60;;;11.75;;
52029;SDS011;38043;53.224;6.580;2023-02-28T08:16:27;21.02;;;12.32;;
52029;SDS011;38043;53.224;6.580;2023-02-28T08:18:53;24.23;;;12.55;;
52029;SDS011;38043;53.224;6.580;2023-02-28T08:21:19;20.95;;;11.98;;
52029;SDS011;38043;53.224;6.580;2023-02-28T08:23:46;26.27;;;12.75;;
52029;SDS011;38043;53.224;6.580;2023-02-28T08:26:13;19.30;;;12.07;;
52029;SDS011;38043;53.224;6.580;2023-02-28T08:28:39;20.02;;;12.45;;
52029;SDS011;38043;53.224;6.580;2023-02-28T08:31:11;24.65;;;12.43;;
52029;SDS011;38043;53.224;6.580;2023-02-28T08:33:38;21.48;;;13.00;;
52029;SDS011;38043;53.224;6.580;2023-02-28T08:36:05;22.42;;;12.20;;
52029;SDS011;38043;53.224;6.580;2023-02-28T08:38:32;22.13;;;13.57;;
52029;SDS011;38043;53.224;6.580;2023-02-28T08:40:58;22.60;;;13.82;;
52029;SDS011;38043;53.224;6.580;2023-02-28T08:43:25;19.98;;;12.10;;
52029;SDS011;38043;53.224;6.580;2023-02-28T08:45:55;23.48;;;12.25;;
52029;SDS011;38043;53.224;6.580;2023-02-28T08:48:24;21.38;;;13.20;;
52029;SDS011;38043;53.224;6.580;2023-02-28T08:50:55;24.83;;;12.20;;
52029;SDS011;38043;53.224;6.580;2023-02-28T08:53:25;19.83;;;12.73;;
52029;SDS011;38043;53.224;6.580;2023-02-28T08:58:24;19.40;;;11.95;;
52029;SDS011;38043;53.224;6.580;2023-02-28T09:00:50;18.02;;;10.98;;
52029;SDS011;38043;53.224;6.580;2023-02-28T09:03:16;19.42;;;11.57;;
52029;SDS011;38043;53.224;6.580;2023-02-28T09:05:51;22.48;;;12.02;;
52029;SDS011;38043;53.224;6.580;2023-02-28T09:08:19;17.75;;;11.48;;
52029;SDS011;38043;53.224;6.580;2023-02-28T09:10:45;19.70;;;12.02;;
52029;SDS011;38043;53.224;6.580;2023-02-28T09:13:11;20.30;;;11.27;;
52029;SDS011;38043;53.224;6.580;2023-02-28T09:15:37;15.88;;;10.60;;
52029;SDS011;38043;53.224;6.580;2023-02-28T09:18:03;21.73;;;12.18;;
52029;SDS011;38043;53.224;6.580;2023-02-28T09:20:29;18.90;;;11.27;;
52029;SDS011;38043;53.224;6.580;2023-02-28T09:22:54;21.50;;;11.27;;
52029;SDS011;38043;53.224;6.580;2023-02-28T09:25:20;16.83;;;10.75;;
52029;SDS011;38043;53.224;6.580;2023-02-28T09:27:46;16.25;;;11.45;;
52029;SDS011;38043;53.224;6.580;2023-02-28T09:30:12;18.73;;;11.70;;
52029;SDS011;38043;53.224;6.580;2023-02-28T09:32:38;18.20;;;10.23;;
52029;SDS011;38043;53.224;6.580;2023-02-28T09:35:03;17.55;;;9.90;;
52029;SDS011;38043;53.224;6.580;2023-02-28T09:37:30;14.95;;;10.07;;
52029;SDS011;38043;53.224;6.580;2023-02-28T09:39:56;16.80;;;10.77;;
52029;SDS011;38043;53.224;6.580;2023-02-28T09:42:25;19.60;;;11.10;;
52029;SDS011;38043;53.224;6.580;2023-02-28T09:44:56;19.17;;;10.82;;
52029;SDS011;38043;53.224;6.580;2023-02-28T09:47:27;14.77;;;10.10;;
52029;SDS011;38043;53.224;6.580;2023-02-28T09:49:58;15.65;;;10.20;;
52029;SDS011;38043;53.224;6.580;2023-02-28T09:52:36;21.17;;;11.18;;
52029;SDS011;38043;53.224;6.580;2023-02-28T09:55:18;14.50;;;9.70;;
52029;SDS011;38043;53.224;6.580;2023-02-28T09:57:51;16.13;;;9.93;;
52029;SDS011;38043;53.224;6.580;2023-02-28T10:00:18;18.90;;;9.60;;
52029;SDS011;38043;53.224;6.580;2023-02-28T10:05:29;16.60;;;8.93;;
52029;SDS011;38043;53.224;6.580;2023-02-28T10:08:16;11.88;;;7.35;;
52029;SDS011;38043;53.224;6.580;2023-02-28T10:10:51;12.85;;;8.50;;
52029;SDS011;38043;53.224;6.580;2023-02-28T10:13:35;12.40;;;7.88;;
52029;SDS011;38043;53.224;6.580;2023-02-28T10:16:16;13.38;;;7.68;;
52029;SDS011;38043;53.224;6.580;2023-02-28T10:18:51;12.27;;;7.10;;
52029;SDS011;38043;53.224;6.580;2023-02-28T10:21:36;12.25;;;7.72;;
52029;SDS011;38043;53.224;6.580;2023-02-28T10:26:47;12.52;;;7.68;;
52029;SDS011;38043;53.224;6.580;2023-02-28T10:29:13;11.98;;;7.05;;
52029;SDS011;38043;53.224;6.580;2023-02-28T10:31:39;11.60;;;7.28;;
52029;SDS011;38043;53.224;6.580;2023-02-28T10:34:05;13.63;;;7.60;;
52029;SDS011;38043;53.224;6.580;2023-02-28T10:36:31;12.10;;;7.57;;
52029;SDS011;38043;53.224;6.580;2023-02-28T10:38:57;12.73;;;6.88;;
52029;SDS011;38043;53.224;6.580;2023-02-28T10:41:31;10.00;;;6.05;;
52029;SDS011;38043;53.224;6.580;2023-02-28T10:44:14;9.75;;;5.60;;
52029;SDS011;38043;53.224;6.580;2023-02-28T10:46:45;11.02;;;6.15;;
52029;SDS011;38043;53.224;6.580;2023-02-28T10:49:19;9.23;;;6.45;;
52029;SDS011;38043;53.224;6.580;2023-02-28T10:51:52;9.38;;;6.13;;
52029;SDS011;38043;53.224;6.580;2023-02-28T10:54:23;8.55;;;6.10;;
52029;SDS011;38043;53.224;6.580;2023-02-28T10:59:34;10.73;;;4.70;;
52029;SDS011;38043;53.224;6.580;2023-02-28T11:02:01;14.18;;;5.55;;
52029;SDS011;38043;53.224;6.580;2023-02-28T11:06:58;6.90;;;4.85;;
52029;SDS011;38043;53.224;6.580;2023-02-28T11:09:40;8.43;;;4.93;;
52029;SDS011;38043;53.224;6.580;2023-02-28T11:12:16;8.25;;;4.78;;
52029;SDS011;38043;53.224;6.580;2023-02-28T11:14:50;8.05;;;4.35;;
52029;SDS011;38043;53.224;6.580;2023-02-28T11:17:23;7.78;;;4.63;;
52029;SDS011;38043;53.224;6.580;2023-02-28T11:19:51;7.72;;;3.90;;
52029;SDS011;38043;53.224;6.580;2023-02-28T11:22:20;6.40;;;4.07;;
52029;SDS011;38043;53.224;6.580;2023-02-28T11:24:51;5.25;;;3.60;;
52029;SDS011;38043;53.224;6.580;2023-02-28T11:29:58;5.43;;;3.25;;
52029;SDS011;38043;53.224;6.580;2023-02-28T11:32:26;9.05;;;4.32;;
52029;SDS011;38043;53.224;6.580;2023-02-28T11:37:48;6.75;;;4.35;;
52029;SDS011;38043;53.224;6.580;2023-02-28T11:40:18;8.05;;;5.05;;
52029;SDS011;38043;53.224;6.580;2023-02-28T11:51:48;8.80;;;6.00;;
52029;SDS011;38043;53.224;6.580;2023-02-28T11:54:29;12.85;;;6.18;;
52029;SDS011;38043;53.224;6.580;2023-02-28T12:02:29;8.02;;;4.40;;
52029;SDS011;38043;53.224;6.580;2023-02-28T12:05:11;7.72;;;4.53;;
52029;SDS011;38043;53.224;6.580;2023-02-28T12:10:26;8.82;;;5.28;;
52029;SDS011;38043;53.224;6.580;2023-02-28T12:19:35;8.02;;;4.93;;
52029;SDS011;38043;53.224;6.580;2023-02-28T12:22:22;9.80;;;5.07;;
52029;SDS011;38043;53.224;6.580;2023-02-28T12:27:37;10.00;;;5.65;;
52029;SDS011;38043;53.224;6.580;2023-02-28T12:32:56;9.27;;;4.60;;
52029;SDS011;38043;53.224;6.580;2023-02-28T12:35:38;8.88;;;4.97;;
52029;SDS011;38043;53.224;6.580;2023-02-28T12:38:12;6.63;;;4.68;;
52029;SDS011;38043;53.224;6.580;2023-02-28T12:43:19;8.02;;;4.50;;
52029;SDS011;38043;53.224;6.580;2023-02-28T12:45:55;6.95;;;4.72;;
52029;SDS011;38043;53.224;6.580;2023-02-28T12:48:31;10.20;;;5.32;;
52029;SDS011;38043;53.224;6.580;2023-02-28T12:51:03;6.65;;;5.07;;
52029;SDS011;38043;53.224;6.580;2023-02-28T12:53:37;9.73;;;5.47;;
52029;SDS011;38043;53.224;6.580;2023-02-28T12:56:16;8.85;;;5.97;;
52029;SDS011;38043;53.224;6.580;2023-02-28T12:59:03;8.73;;;5.22;;
52029;SDS011;38043;53.224;6.580;2023-02-28T13:01:47;8.32;;;5.50;;
52029;SDS011;38043;53.224;6.580;2023-02-28T13:07:35;8.60;;;4.97;;
52029;SDS011;38043;53.224;6.580;2023-02-28T13:10:06;8.07;;;5.28;;
52029;SDS011;38043;53.224;6.580;2023-02-28T13:12:33;9.10;;;5.50;;
52029;SDS011;38043;53.224;6.580;2023-02-28T13:17:50;12.27;;;5.45;;
52029;SDS011;38043;53.224;6.580;2023-02-28T13:20:46;11.70;;;5.80;;
52029;SDS011;38043;53.224;6.580;2023-02-28T13:27:10;11.20;;;6.13;;
52029;SDS011;38043;53.224;6.580;2023-02-28T13:34:27;11.10;;;5.03;;
52029;SDS011;38043;53.224;6.580;2023-02-28T13:37:20;11.20;;;5.68;;
52029;SDS011;38043;53.224;6.580;2023-02-28T13:40:22;9.07;;;4.85;;
52029;SDS011;38043;53.224;6.580;2023-02-28T13:42:54;7.55;;;4.88;;
52029;SDS011;38043;53.224;6.580;2023-02-28T13:47:59;8.05;;;5.35;;
52029;SDS011;38043;53.224;6.580;2023-02-28T14:11:37;11.30;;;6.65;;
52029;SDS011;38043;53.224;6.580;2023-02-28T14:14:05;17.45;;;6.30;;
52029;SDS011;38043;53.224;6.580;2023-02-28T14:16:44;11.25;;;6.10;;
52029;SDS011;38043;53.224;6.580;2023-02-28T14:21:38;8.05;;;5.38;;
52029;SDS011;38043;53.224;6.580;2023-02-28T14:27:17;10.32;;;6.20;;
52029;SDS011;38043;53.224;6.580;2023-02-28T14:30:03;9.73;;;6.07;;
52029;SDS011;38043;53.224;6.580;2023-02-28T14:38:40;8.85;;;5.72;;
52029;SDS011;38043;53.224;6.580;2023-02-28T14:41:12;10.70;;;6.35;;
52029;SDS011;38043;53.224;6.580;2023-02-28T14:44:20;10.82;;;6.47;;
52029;SDS011;38043;53.224;6.580;2023-02-28T14:46:54;12.23;;;6.03;;
52029;SDS011;38043;53.224;6.580;2023-02-28T14:49:30;9.15;;;6.15;;
52029;SDS011;38043;53.224;6.580;2023-02-28T14:54:40;10.75;;;6.25;;
52029;SDS011;38043;53.224;6.580;2023-02-28T14:57:06;12.15;;;6.82;;
52029;SDS011;38043;53.224;6.580;2023-02-28T14:59:56;12.57;;;7.13;;
52029;SDS011;38043;53.224;6.580;2023-02-28T15:02:35;12.23;;;6.78;;
52029;SDS011;38043;53.224;6.580;2023-02-28T15:05:10;13.02;;;6.55;;
52029;SDS011;38043;53.224;6.580;2023-02-28T15:07:43;9.60;;;6.72;;
52029;SDS011;38043;53.224;6.580;2023-02-28T15:10:16;11.52;;;6.82;;
52029;SDS011;38043;53.224;6.580;2023-02-28T15:13:06;11.20;;;7.25;;
52029;SDS011;38043;53.224;6.580;2023-02-28T15:18:06;12.70;;;7.10;;
52029;SDS011;38043;53.224;6.580;2023-02-28T15:20:38;12.43;;;6.70;;
52029;SDS011;38043;53.224;6.580;2023-02-28T15:23:06;9.48;;;6.70;;
52029;SDS011;38043;53.224;6.580;2023-02-28T15:25:32;10.85;;;6.97;;
52029;SDS011;38043;53.224;6.580;2023-02-28T15:27:57;11.02;;;6.57;;
52029;SDS011;38043;53.224;6.580;2023-02-28T15:30:30;9.50;;;5.95;;
52029;SDS011;38043;53.224;6.580;2023-02-28T15:35:30;12.88;;;6.60;;
52029;SDS011;38043;53.224;6.580;2023-02-28T15:38:00;11.20;;;6.70;;
52029;SDS011;38043;53.224;6.580;2023-02-28T15:40:41;15.75;;;6.35;;
52029;SDS011;38043;53.224;6.580;2023-02-28T15:48:16;13.27;;;6.85;;
52029;SDS011;38043;53.224;6.580;2023-02-28T15:50:49;9.77;;;6.82;;
52029;SDS011;38043;53.224;6.580;2023-02-28T15:53:27;13.30;;;7.68;;
52029;SDS011;38043;53.224;6.580;2023-02-28T15:56:03;10.07;;;6.95;;
52029;SDS011;38043;53.224;6.580;2023-02-28T15:58:32;10.27;;;6.55;;
52029;SDS011;38043;53.224;6.580;2023-02-28T16:01:07;10.98;;;6.75;;
52029;SDS011;38043;53.224;6.580;2023-02-28T16:03:55;13.52;;;6.95;;
52029;SDS011;38043;53.224;6.580;2023-02-28T16:08:55;13.43;;;7.93;;
52029;SDS011;38043;53.224;6.580;2023-02-28T16:11:21;14.95;;;6.95;;
52029;SDS011;38043;53.224;6.580;2023-02-28T16:13:47;11.65;;;6.70;;
52029;SDS011;38043;53.224;6.580;2023-02-28T16:16:22;11.10;;;7.47;;
52029;SDS011;38043;53.224;6.580;2023-02-28T16:18:49;9.00;;;6.80;;
52029;SDS011;38043;53.224;6.580;2023-02-28T16:21:15;11.77;;;7.07;;
52029;SDS011;38043;53.224;6.580;2023-02-28T16:23:41;16.98;;;7.43;;
52029;SDS011;38043;53.224;6.580;2023-02-28T16:26:07;11.15;;;7.10;;
52029;SDS011;38043;53.224;6.580;2023-02-28T16:28:33;11.85;;;6.78;;
52029;SDS011;38043;53.224;6.580;2023-02-28T16:31:02;11.63;;;6.55;;
52029;SDS011;38043;53.224;6.580;2023-02-28T16:33:32;10.32;;;7.68;;
52029;SDS011;38043;53.224;6.580;2023-02-28T16:35:58;17.30;;;7.47;;
52029;SDS011;38043;53.224;6.580;2023-02-28T16:38:24;12.13;;;7.60;;
52029;SDS011;38043;53.224;6.580;2023-02-28T16:40:50;11.88;;;7.68;;
52029;SDS011;38043;53.224;6.580;2023-02-28T16:43:25;11.45;;;7.40;;
52029;SDS011;38043;53.224;6.580;2023-02-28T16:45:55;18.90;;;8.27;;
52029;SDS011;38043;53.224;6.580;2023-02-28T16:48:22;12.15;;;8.05;;
52029;SDS011;38043;53.224;6.580;2023-02-28T16:50:48;15.80;;;7.47;;
52029;SDS011;38043;53.224;6.580;2023-02-28T16:53:14;13.88;;;7.60;;
52029;SDS011;38043;53.224;6.580;2023-02-28T16:55:39;16.77;;;7.80;;
52029;SDS011;38043;53.224;6.580;2023-02-28T16:58:05;11.05;;;7.80;;
52029;SDS011;38043;53.224;6.580;2023-02-28T17:00:32;12.68;;;7.95;;
52029;SDS011;38043;53.224;6.580;2023-02-28T17:02:58;11.35;;;8.38;;
52029;SDS011;38043;53.224;6.580;2023-02-28T17:05:24;13.80;;;9.00;;
52029;SDS011;38043;53.224;6.580;2023-02-28T17:07:52;11.27;;;8.10;;
52029;SDS011;38043;53.224;6.580;2023-02-28T17:10:21;13.88;;;7.97;;
52029;SDS011;38043;53.224;6.580;2023-02-28T17:12:49;14.27;;;8.70;;
52029;SDS011;38043;53.224;6.580;2023-02-28T17:15:15;14.10;;;8.30;;
52029;SDS011;38043;53.224;6.580;2023-02-28T17:17:43;16.97;;;7.17;;
52029;SDS011;38043;53.224;6.580;2023-02-28T17:20:13;11.82;;;8.32;;
52029;SDS011;38043;53.224;6.580;2023-02-28T17:22:41;14.88;;;8.50;;
52029;SDS011;38043;53.224;6.580;2023-02-28T17:25:07;12.20;;;8.30;;
52029;SDS011;38043;53.224;6.580;2023-02-28T17:27:34;12.57;;;8.40;;